This is the latest recevied weather packets stored in our database for station/object KC1DMA. If no packets are shown the sender has not sent any weather packets the latest 10 day(s).
| Time | Temp. | Humidity | Pressure | Rain* | Wind** | Luminosity | Snow |
|---|---|---|---|---|---|---|---|
| 1777495534 | 16.11° C | 59% | 1013.8 hPa | - | - | 345 W/m² | - |
| 1777494322 | 16.11° C | 59% | 1014.1 hPa | - | - | 345 W/m² | - |
| 1777492807 | 17.22° C | 53% | 1014.4 hPa | - | - | 580 W/m² | - |
| 1777492199 | 17.78° C | 51% | 1014.6 hPa | - | - | 455 W/m² | - |
| 1777491290 | 17.78° C | 51% | 1014.5 hPa | - | - | 455 W/m² | - |
| 1777490986 | 17.22° C | 53% | 1014.5 hPa | - | - | 456 W/m² | - |
| 1777490682 | 17.22° C | 52% | 1014.6 hPa | - | - | 440 W/m² | - |
| 1777490378 | 17.22° C | 54% | 1014.6 hPa | - | - | 397 W/m² | - |
| 1777490076 | 17.22° C | 53% | 1014.5 hPa | - | - | 465 W/m² | - |
| 1777489471 | 17.22° C | 53% | 1014.4 hPa | - | - | 465 W/m² | - |
| 1777487351 | 17.22° C | 55% | 1015.2 hPa | - | - | 783 W/m² | - |
| 1777486744 | 17.22° C | 55% | 1015.3 hPa | - | - | 783 W/m² | - |
| 1777486443 | 17.22° C | 55% | 1015.1 hPa | - | - | 783 W/m² | - |
| 1777486140 | 17.22° C | 55% | 1015.2 hPa | - | - | 783 W/m² | - |
| 1777485836 | 17.22° C | 55% | 1015.2 hPa | - | - | 783 W/m² | - |
| 1777485532 | 17.22° C | 55% | 1015.4 hPa | - | - | 783 W/m² | - |
| 1777485229 | 17.22° C | 55% | 1015.4 hPa | - | - | 783 W/m² | - |
| 1777484318 | 17.22° C | 55% | 1015.6 hPa | - | - | 783 W/m² | - |
| 1777475823 | 13.33° C | 60% | 1016.4 hPa | - | - | 646 W/m² | - |
| 1777475519 | 13.33° C | 60% | 1016.4 hPa | - | - | 646 W/m² | - |
| 1777474607 | 13.33° C | 60% | 1016.5 hPa | - | - | 646 W/m² | - |
| 1777473394 | 13.33° C | 60% | 1016.6 hPa | - | - | 646 W/m² | - |
| 1777466415 | 11.11° C | 67% | 1017.8 hPa | - | - | 295 W/m² | - |
| 1777466110 | 11.11° C | 67% | 1018 hPa | - | - | 295 W/m² | - |
| 1777465807 | 11.11° C | 67% | 1017.9 hPa | - | - | 295 W/m² | - |
* Rain since midnight (hover to see other rain measurements)
** Current wind speed in m/s (hover to see current wind gust speed)